createdAt,value
2017-03-10T00:00:27.823Z,3.89
2017-03-10T00:01:27.409Z,3.84
2017-03-10T00:02:28.531Z,3.81
2017-03-10T00:03:27.771Z,3.82
2017-03-10T00:04:27.770Z,3.84
2017-03-10T00:05:28.615Z,3.81
2017-03-10T00:06:27.781Z,3.81
2017-03-10T00:07:27.327Z,3.81
2017-03-10T00:08:27.542Z,3.86
2017-03-10T00:09:27.317Z,3.86
2017-03-10T00:10:27.672Z,3.79
2017-03-10T00:11:27.601Z,3.85
2017-03-10T00:12:27.658Z,3.86
2017-03-10T00:13:27.620Z,3.82
2017-03-10T00:14:28.119Z,3.82
2017-03-10T00:15:27.599Z,3.86
2017-03-10T00:16:26.806Z,3.81
2017-03-10T00:17:28.072Z,3.82
2017-03-10T00:18:27.560Z,3.84
2017-03-10T00:19:27.538Z,3.82
2017-03-10T00:20:27.682Z,3.85
2017-03-10T00:21:27.518Z,3.78
2017-03-10T00:22:27.496Z,3.85
2017-03-10T00:23:27.744Z,3.81
2017-03-10T00:24:27.465Z,3.81
2017-03-10T00:25:27.459Z,3.85
2017-03-10T00:26:27.665Z,3.79
2017-03-10T00:27:27.430Z,3.82
2017-03-10T00:28:27.416Z,3.82
2017-03-10T00:29:27.401Z,3.82
2017-03-10T00:30:27.618Z,3.84
2017-03-10T00:31:27.380Z,3.9
2017-03-10T00:32:26.556Z,3.9
2017-03-10T00:33:28.355Z,3.86
2017-03-10T00:34:27.349Z,3.89
2017-03-10T00:35:27.313Z,3.89
2017-03-10T00:36:27.301Z,3.93
2017-03-10T00:37:26.899Z,3.99
2017-03-10T00:38:27.274Z,3.97
2017-03-10T00:39:27.247Z,3.92
2017-03-10T00:40:27.247Z,3.99
2017-03-10T00:41:27.225Z,4.04
2017-03-10T00:42:27.210Z,4.03
2017-03-10T00:43:27.197Z,3.99
2017-03-10T00:44:27.198Z,3.97
2017-03-10T00:45:26.765Z,3.94
2017-03-10T00:46:26.771Z,3.96
2017-03-10T00:47:27.150Z,4.03
2017-03-10T00:48:27.125Z,4.08
2017-03-10T00:49:27.109Z,4.02
2017-03-10T00:50:27.113Z,4.08
2017-03-10T00:51:27.096Z,4.08
2017-03-10T00:52:27.090Z,4.12
2017-03-10T00:53:27.051Z,4.1
2017-03-10T00:54:27.044Z,4.1
2017-03-10T00:55:26.652Z,4.11
2017-03-10T00:56:27.015Z,4.11
2017-03-10T00:57:26.994Z,4.12
2017-03-10T00:58:26.990Z,4.14
2017-03-10T00:59:26.599Z,4.11
2017-03-10T01:00:26.967Z,4.12
2017-03-10T01:01:26.949Z,4.14
2017-03-10T01:02:26.954Z,4.12
2017-03-10T01:03:26.518Z,4.14
2017-03-10T01:04:26.912Z,4.18
2017-03-10T01:05:26.891Z,4.14
2017-03-10T01:06:26.494Z,4.2
2017-03-10T01:07:26.854Z,4.22
2017-03-10T01:08:26.840Z,4.11
2017-03-10T01:09:26.031Z,4.21
2017-03-10T01:10:26.433Z,4.21
2017-03-10T01:11:26.814Z,4.18
2017-03-10T01:12:26.787Z,4.18
2017-03-10T01:13:26.375Z,4.12
2017-03-10T01:14:26.355Z,4.12
2017-03-10T01:15:26.746Z,4.15
2017-03-10T01:16:26.734Z,4.14
2017-03-10T01:17:26.750Z,4.15
2017-03-10T01:18:26.725Z,4.17
2017-03-10T01:19:26.691Z,4.1
2017-03-10T01:20:26.673Z,4.18
2017-03-10T01:21:26.670Z,4.14
2017-03-10T01:22:26.658Z,4.17
2017-03-10T01:23:26.629Z,4.17
2017-03-10T01:24:26.610Z,4.14
2017-03-10T01:25:26.599Z,4.2
2017-03-10T01:26:26.188Z,4.15
2017-03-10T01:27:26.591Z,4.11
2017-03-10T01:28:26.168Z,4.14
2017-03-10T01:29:26.547Z,4.1
2017-03-10T01:30:26.546Z,4.1
2017-03-10T01:31:26.523Z,4.12
2017-03-10T01:32:26.502Z,4.03
2017-03-10T01:33:25.701Z,4.11
2017-03-10T01:34:26.489Z,3.97
2017-03-10T01:35:26.457Z,3.94
2017-03-10T01:36:26.042Z,3.9
2017-03-10T01:37:26.429Z,3.92
2017-03-10T01:38:26.418Z,3.97
2017-03-10T01:39:26.416Z,3.92
2017-03-10T01:40:26.390Z,3.97
2017-03-10T01:41:26.379Z,3.96
2017-03-10T01:42:26.365Z,3.94
2017-03-10T01:43:26.350Z,3.93
2017-03-10T01:44:25.942Z,3.84
2017-03-10T01:45:25.926Z,3.85
2017-03-10T01:46:26.296Z,3.85
2017-03-10T01:47:25.885Z,3.79
2017-03-10T01:48:25.884Z,3.85
2017-03-10T01:49:25.869Z,3.78
2017-03-10T01:50:26.252Z,3.76
2017-03-10T01:51:26.237Z,3.75
2017-03-10T01:52:26.221Z,3.69
2017-03-10T01:53:26.206Z,3.72
2017-03-10T01:54:26.198Z,3.64
2017-03-10T01:55:25.771Z,3.63
2017-03-10T01:56:26.156Z,3.49
2017-03-10T01:57:25.751Z,3.63
2017-03-10T01:58:25.738Z,3.54
2017-03-10T01:59:25.717Z,3.58
2017-03-10T02:00:25.694Z,3.51
2017-03-10T02:01:25.695Z,3.49
2017-03-10T02:02:25.666Z,3.46
2017-03-10T02:03:26.066Z,3.48
2017-03-10T02:04:26.033Z,3.53
2017-03-10T02:05:26.043Z,3.51
2017-03-10T02:06:26.011Z,3.46
2017-03-10T02:07:25.992Z,3.46
2017-03-10T02:08:25.975Z,3.39
2017-03-10T02:09:25.958Z,3.48
2017-03-10T02:10:25.952Z,3.43
2017-03-10T02:11:25.943Z,3.43
2017-03-10T02:12:25.916Z,3.4
2017-03-10T02:13:25.903Z,3.45
2017-03-10T02:14:25.892Z,3.35
2017-03-10T02:15:25.867Z,3.45
2017-03-10T02:16:25.857Z,3.42
2017-03-10T02:17:25.844Z,3.37
2017-03-10T02:18:25.830Z,3.43
2017-03-10T02:19:25.425Z,3.39
2017-03-10T02:20:25.799Z,3.42
2017-03-10T02:21:25.785Z,3.39
2017-03-10T02:22:25.785Z,3.3
2017-03-10T02:23:25.767Z,3.34
2017-03-10T02:24:25.736Z,3.34
2017-03-10T02:25:25.724Z,3.27
2017-03-10T02:26:25.744Z,3.26
2017-03-10T02:27:25.690Z,3.39
2017-03-10T02:28:25.703Z,3.35
2017-03-10T02:29:25.662Z,3.3
2017-03-10T02:30:25.656Z,3.3
2017-03-10T02:31:26.617Z,3.29
2017-03-10T02:32:25.624Z,3.17
2017-03-10T02:33:25.607Z,3.24
2017-03-10T02:34:25.592Z,3.27
2017-03-10T02:35:25.568Z,3.26
2017-03-10T02:36:25.551Z,3.26
2017-03-10T02:37:25.539Z,3.24
2017-03-10T02:38:25.533Z,3.19
2017-03-10T02:39:25.507Z,3.2
2017-03-10T02:40:25.527Z,3.21
2017-03-10T02:41:25.480Z,3.21
2017-03-10T02:42:25.463Z,3.23
2017-03-10T02:43:25.461Z,3.13
2017-03-10T02:44:25.450Z,3.2
2017-03-10T02:45:25.429Z,3.2
2017-03-10T02:46:25.410Z,3.19
2017-03-10T02:47:25.402Z,3.2
2017-03-10T02:48:25.382Z,3.19
2017-03-10T02:49:25.384Z,3.2
2017-03-10T02:50:24.968Z,3.16
2017-03-10T02:51:25.344Z,3.2
2017-03-10T02:52:24.916Z,3.21
2017-03-10T02:53:25.298Z,3.17
2017-03-10T02:54:25.282Z,3.23
2017-03-10T02:55:25.275Z,3.21
2017-03-10T02:56:25.253Z,3.27
2017-03-10T02:57:25.241Z,3.26
2017-03-10T02:58:25.254Z,3.21
2017-03-10T02:59:25.219Z,3.2
2017-03-10T03:00:25.196Z,3.19
2017-03-10T03:01:25.184Z,3.21
2017-03-10T03:02:25.166Z,3.21
2017-03-10T03:03:25.212Z,3.24
2017-03-10T03:04:25.131Z,3.11
2017-03-10T03:05:24.738Z,3.17
2017-03-10T03:06:25.126Z,3.16
2017-03-10T03:07:25.113Z,3.09
2017-03-10T03:08:25.075Z,3.05
2017-03-10T03:09:25.067Z,3.06
2017-03-10T03:10:25.047Z,3.05
2017-03-10T03:11:25.043Z,3.05
2017-03-10T03:12:25.014Z,2.95
2017-03-10T03:13:24.614Z,2.98
2017-03-10T03:14:24.983Z,3.03
2017-03-10T03:15:24.966Z,3.02
2017-03-10T03:16:24.957Z,2.99
2017-03-10T03:17:24.950Z,3.03
2017-03-10T03:18:24.945Z,2.95
2017-03-10T03:19:24.905Z,2.93
2017-03-10T03:20:24.894Z,2.93
2017-03-10T03:21:24.871Z,2.93
2017-03-10T03:22:24.860Z,3.03
2017-03-10T03:23:24.861Z,2.98
2017-03-10T03:24:24.826Z,3.05
2017-03-10T03:25:24.824Z,2.96
2017-03-10T03:26:24.821Z,2.93
2017-03-10T03:27:24.790Z,2.93
2017-03-10T03:28:24.770Z,2.91
2017-03-10T03:29:24.764Z,3.05
2017-03-10T03:30:24.748Z,3.08
2017-03-10T03:31:24.724Z,2.93
2017-03-10T03:32:24.738Z,2.93
2017-03-10T03:33:24.301Z,2.99
2017-03-10T03:34:24.678Z,3.05
2017-03-10T03:35:24.662Z,2.95
2017-03-10T03:36:24.645Z,2.96
2017-03-10T03:37:24.645Z,3.03
2017-03-10T03:38:24.633Z,3.02
2017-03-10T03:39:24.615Z,2.88
2017-03-10T03:40:24.592Z,2.83
2017-03-10T03:41:24.578Z,2.77
2017-03-10T03:42:24.560Z,2.81
2017-03-10T03:43:24.541Z,2.72
2017-03-10T03:44:24.521Z,2.7
2017-03-10T03:45:24.514Z,2.6
2017-03-10T03:46:24.495Z,2.54
2017-03-10T03:47:24.080Z,2.63
2017-03-10T03:48:24.472Z,2.55
2017-03-10T03:49:24.454Z,2.54
2017-03-10T03:50:24.434Z,2.52
2017-03-10T03:51:24.023Z,2.55
2017-03-10T03:52:24.408Z,2.62
2017-03-10T03:53:24.393Z,2.58
2017-03-10T03:54:24.389Z,2.62
2017-03-10T03:55:24.354Z,2.54
2017-03-10T03:56:24.342Z,2.59
2017-03-10T03:57:24.328Z,2.59
2017-03-10T03:58:24.317Z,2.63
2017-03-10T03:59:24.301Z,2.58
2017-03-10T04:00:23.894Z,2.51
2017-03-10T04:01:24.275Z,2.58
2017-03-10T04:02:24.247Z,2.59
2017-03-10T04:03:24.235Z,2.66
2017-03-10T04:04:24.219Z,2.65
2017-03-10T04:05:24.219Z,2.55
2017-03-10T04:06:24.186Z,2.55
2017-03-10T04:07:24.184Z,2.65
2017-03-10T04:08:24.161Z,2.54
2017-03-10T04:09:24.138Z,2.6
2017-03-10T04:10:24.125Z,2.58
2017-03-10T04:11:24.110Z,2.76
2017-03-10T04:12:24.119Z,2.55
2017-03-10T04:13:24.087Z,2.55
2017-03-10T04:14:24.073Z,2.59
2017-03-10T04:15:24.061Z,2.58
2017-03-10T04:16:24.033Z,2.6
2017-03-10T04:17:24.032Z,2.55
2017-03-10T04:18:24.013Z,2.52
2017-03-10T04:19:23.989Z,2.6
2017-03-10T04:20:23.978Z,2.54
2017-03-10T04:21:23.969Z,2.54
2017-03-10T04:22:23.940Z,2.49
2017-03-10T04:23:23.924Z,2.58
2017-03-10T04:24:23.917Z,2.62
2017-03-10T04:25:23.899Z,2.54
2017-03-10T04:26:23.885Z,2.52
2017-03-10T04:27:23.873Z,2.52
2017-03-10T04:28:23.844Z,2.6
2017-03-10T04:29:23.840Z,2.58
2017-03-10T04:30:23.817Z,2.55
2017-03-10T04:31:23.803Z,2.49
2017-03-10T04:32:23.796Z,2.6
2017-03-10T04:33:23.777Z,2.52
2017-03-10T04:34:23.753Z,2.58
2017-03-10T04:35:23.733Z,2.51
2017-03-10T04:36:23.731Z,2.58
2017-03-10T04:37:23.703Z,2.47
2017-03-10T04:38:23.719Z,2.45
2017-03-10T04:39:23.284Z,2.45
2017-03-10T04:40:23.658Z,2.44
2017-03-10T04:41:23.648Z,2.49
2017-03-10T04:42:23.242Z,2.45
2017-03-10T04:43:23.617Z,2.49
2017-03-10T04:44:23.606Z,2.45
2017-03-10T04:45:23.573Z,2.48
2017-03-10T04:46:23.568Z,2.36
2017-03-10T04:47:23.550Z,2.44
2017-03-10T04:48:23.545Z,2.33
2017-03-10T04:49:23.531Z,2.44
2017-03-10T04:50:23.522Z,2.44
2017-03-10T04:51:23.486Z,2.34
2017-03-10T04:52:23.473Z,2.36
2017-03-10T04:53:23.460Z,2.41
2017-03-10T04:54:23.443Z,2.4
2017-03-10T04:55:23.437Z,2.34
2017-03-10T04:56:23.419Z,2.33
2017-03-10T04:57:23.405Z,2.3
2017-03-10T04:58:22.982Z,2.34
2017-03-10T04:59:23.356Z,2.34
2017-03-10T05:00:23.358Z,2.34
2017-03-10T05:01:23.339Z,2.4
2017-03-10T05:02:23.339Z,2.36
2017-03-10T05:03:23.301Z,2.29
2017-03-10T05:04:23.293Z,2.31
2017-03-10T05:05:23.280Z,2.34
2017-03-10T05:06:23.253Z,2.34
2017-03-10T05:07:23.239Z,2.31
2017-03-10T05:08:23.223Z,2.4
2017-03-10T05:09:22.809Z,2.27
2017-03-10T05:10:23.191Z,2.31
2017-03-10T05:11:23.175Z,2.31
2017-03-10T05:12:22.773Z,2.4
2017-03-10T05:13:23.186Z,2.31
2017-03-10T05:14:23.137Z,2.34
2017-03-10T05:15:23.114Z,2.34
2017-03-10T05:16:23.095Z,2.31
2017-03-10T05:17:23.081Z,2.34
2017-03-10T05:18:23.070Z,2.3
2017-03-10T05:19:23.046Z,2.29
2017-03-10T05:20:23.073Z,2.29
2017-03-10T05:21:23.016Z,2.27
2017-03-10T05:22:23.005Z,2.16
2017-03-10T05:23:23.005Z,2.22
2017-03-10T05:24:22.973Z,2.15
2017-03-10T05:25:22.967Z,2.13
2017-03-10T05:26:22.947Z,2.13
2017-03-10T05:27:22.927Z,2.12
2017-03-10T05:28:22.915Z,2.15
2017-03-10T05:29:22.903Z,2.12
2017-03-10T05:30:22.879Z,2.11
2017-03-10T05:31:22.468Z,2.11
2017-03-10T05:32:22.857Z,2.12
2017-03-10T05:33:22.829Z,2.18
2017-03-10T05:34:22.812Z,2.15
2017-03-10T05:35:22.810Z,2.16
2017-03-10T05:36:22.807Z,2.11
2017-03-10T05:37:22.767Z,2.15
2017-03-10T05:38:22.768Z,2.11
2017-03-10T05:39:22.744Z,2.16
2017-03-10T05:40:22.732Z,2.23
2017-03-10T05:41:22.721Z,2.23
2017-03-10T05:42:22.687Z,2.16
2017-03-10T05:43:22.670Z,2.23
2017-03-10T05:44:22.669Z,2.2
2017-03-10T05:45:22.662Z,2.22
2017-03-10T05:46:22.626Z,2.15
2017-03-10T05:47:22.608Z,2.2
2017-03-10T05:48:22.601Z,2.13
2017-03-10T05:49:22.575Z,2.15
2017-03-10T05:50:22.565Z,2.29
2017-03-10T05:51:22.556Z,2.15
2017-03-10T05:52:22.532Z,2.26
2017-03-10T05:53:22.516Z,2.18
2017-03-10T05:54:22.501Z,2.26
2017-03-10T05:55:22.492Z,2.26
2017-03-10T05:56:22.471Z,2.15
2017-03-10T05:57:22.465Z,2.16
2017-03-10T05:58:22.447Z,2.29
2017-03-10T05:59:22.433Z,2.13
2017-03-10T06:00:22.406Z,2.26
2017-03-10T06:01:22.406Z,2.2
2017-03-10T06:02:22.376Z,2.15
2017-03-10T06:03:22.362Z,2.18
2017-03-10T06:04:22.340Z,2.2
2017-03-10T06:05:22.333Z,2.29
2017-03-10T06:06:22.331Z,2.27
2017-03-10T06:07:22.301Z,2.16
2017-03-10T06:08:22.282Z,2.31
2017-03-10T06:09:22.265Z,2.33
2017-03-10T06:10:22.261Z,2.29
2017-03-10T06:11:22.232Z,2.33
2017-03-10T06:12:22.228Z,2.31
2017-03-10T06:13:22.201Z,2.31
2017-03-10T06:14:22.185Z,2.33
2017-03-10T06:15:22.174Z,2.31
2017-03-10T06:16:22.160Z,2.29
2017-03-10T06:17:22.147Z,2.31
2017-03-10T06:18:22.123Z,2.3
2017-03-10T06:19:22.106Z,2.34
2017-03-10T06:20:22.100Z,2.36
2017-03-10T06:21:22.080Z,2.34
2017-03-10T06:22:22.057Z,2.4
2017-03-10T06:23:22.043Z,2.29
2017-03-10T06:24:22.046Z,2.3
2017-03-10T06:25:22.023Z,2.34
2017-03-10T06:26:22.004Z,2.38
2017-03-10T06:27:21.995Z,2.34
2017-03-10T06:28:21.967Z,2.45
2017-03-10T06:29:21.965Z,2.48
2017-03-10T06:30:21.939Z,2.45
2017-03-10T06:31:21.917Z,2.42
2017-03-10T06:32:21.918Z,2.33
2017-03-10T06:33:21.887Z,2.48
2017-03-10T06:34:21.883Z,2.36
2017-03-10T06:35:21.857Z,2.45
2017-03-10T06:36:21.841Z,2.42
2017-03-10T06:37:21.447Z,2.55
2017-03-10T06:38:21.824Z,2.44
2017-03-10T06:39:21.797Z,2.52
2017-03-10T06:40:21.782Z,2.51
2017-03-10T06:41:21.780Z,2.48
2017-03-10T06:42:21.751Z,2.45
2017-03-10T06:43:21.750Z,2.51
2017-03-10T06:44:21.716Z,2.51
2017-03-10T06:45:21.700Z,2.48
2017-03-10T06:46:21.682Z,2.49
2017-03-10T06:47:21.669Z,2.58
2017-03-10T06:48:21.655Z,2.55
2017-03-10T06:49:21.665Z,2.51
2017-03-10T06:50:21.627Z,2.54
2017-03-10T06:51:21.610Z,2.55
2017-03-10T06:52:21.602Z,2.58
2017-03-10T06:53:21.589Z,2.55
2017-03-10T06:54:21.559Z,2.58
2017-03-10T06:55:21.552Z,2.49
2017-03-10T06:56:21.549Z,2.58
2017-03-10T06:57:21.538Z,2.51
2017-03-10T06:58:21.501Z,2.59
2017-03-10T06:59:21.482Z,2.58
2017-03-10T07:00:21.471Z,2.52
2017-03-10T07:01:21.472Z,2.52
2017-03-10T07:02:21.047Z,2.59
2017-03-10T07:03:21.433Z,2.49
2017-03-10T07:04:21.405Z,2.59
2017-03-10T07:05:21.390Z,2.54
2017-03-10T07:06:21.377Z,2.62
2017-03-10T07:07:21.360Z,2.59
2017-03-10T07:08:20.950Z,2.54
2017-03-10T07:09:21.345Z,2.72
2017-03-10T07:10:21.329Z,2.62
2017-03-10T07:11:21.299Z,2.69
2017-03-10T07:12:21.290Z,2.65
2017-03-10T07:13:20.887Z,2.63
2017-03-10T07:14:20.877Z,2.63
2017-03-10T07:15:21.238Z,2.73
2017-03-10T07:16:21.236Z,2.76
2017-03-10T07:17:21.237Z,2.76
2017-03-10T07:18:21.198Z,2.73
2017-03-10T07:19:21.187Z,2.72
2017-03-10T07:20:21.168Z,2.84
2017-03-10T07:21:21.146Z,2.78
2017-03-10T07:22:20.737Z,2.83
2017-03-10T07:23:21.120Z,2.85
2017-03-10T07:24:21.111Z,2.83
2017-03-10T07:25:21.105Z,2.85
2017-03-10T07:26:20.682Z,2.83
2017-03-10T07:27:21.054Z,2.91
2017-03-10T07:28:21.057Z,2.91
2017-03-10T07:29:21.033Z,2.95
2017-03-10T07:30:21.012Z,2.91
2017-03-10T07:31:20.992Z,2.93
2017-03-10T07:32:20.982Z,2.99
2017-03-10T07:33:20.981Z,2.95
2017-03-10T07:34:20.957Z,3.05
2017-03-10T07:35:20.949Z,3.03
2017-03-10T07:36:20.929Z,2.95
2017-03-10T07:37:20.901Z,3.08
2017-03-10T07:38:20.882Z,3.06
2017-03-10T07:39:20.882Z,3.09
2017-03-10T07:40:20.861Z,2.96
2017-03-10T07:41:20.847Z,2.99
2017-03-10T07:42:20.837Z,2.95
2017-03-10T07:43:20.816Z,3.03
2017-03-10T07:44:20.801Z,2.96
2017-03-10T07:45:20.798Z,2.91
2017-03-10T07:46:20.764Z,3.02
2017-03-10T07:47:20.780Z,2.98
2017-03-10T07:48:20.743Z,3.05
2017-03-10T07:49:20.728Z,2.98
2017-03-10T07:50:20.709Z,2.9
2017-03-10T07:51:20.697Z,2.95
2017-03-10T07:52:20.689Z,3.08
2017-03-10T07:53:20.661Z,2.9
2017-03-10T07:54:20.652Z,3.08
2017-03-10T07:55:20.650Z,3.06
2017-03-10T07:56:20.621Z,3.06
2017-03-10T07:57:20.604Z,2.91
2017-03-10T07:58:20.201Z,3.02
2017-03-10T07:59:20.573Z,2.98
2017-03-10T08:00:20.557Z,2.93
2017-03-10T08:01:20.542Z,2.98
2017-03-10T08:02:20.524Z,3.08
2017-03-10T08:03:20.527Z,3.05
2017-03-10T08:04:20.101Z,3.03
2017-03-10T08:05:20.485Z,3.11
2017-03-10T08:06:20.471Z,3.11
2017-03-10T08:07:20.051Z,3.08
2017-03-10T08:08:20.451Z,3.09
2017-03-10T08:09:20.026Z,3.2
2017-03-10T08:10:20.415Z,3.19
2017-03-10T08:11:20.389Z,3.17
2017-03-10T08:12:19.984Z,3.11
2017-03-10T08:13:20.363Z,3.21
2017-03-10T08:14:20.358Z,3.17
2017-03-10T08:15:20.352Z,3.17
2017-03-10T08:16:20.322Z,3.09
2017-03-10T08:17:20.304Z,3.13
2017-03-10T08:18:20.311Z,3.2
2017-03-10T08:19:20.277Z,3.19
2017-03-10T08:20:20.258Z,3.13
2017-03-10T08:21:20.257Z,3.16
2017-03-10T08:22:20.233Z,3.21
2017-03-10T08:23:20.210Z,3.19
2017-03-10T08:24:20.205Z,3.24
2017-03-10T08:25:20.188Z,3.34
2017-03-10T08:26:20.180Z,3.46
2017-03-10T08:27:20.158Z,3.42
2017-03-10T08:28:20.156Z,3.39
2017-03-10T08:29:20.134Z,3.43
2017-03-10T08:30:20.120Z,3.49
2017-03-10T08:31:20.098Z,3.48
2017-03-10T08:32:20.090Z,3.48
2017-03-10T08:33:20.080Z,3.43
2017-03-10T08:34:20.054Z,3.43
2017-03-10T08:35:20.036Z,3.45
2017-03-10T08:36:20.040Z,3.46
2017-03-10T08:37:20.014Z,3.37
2017-03-10T08:38:19.994Z,3.46
2017-03-10T08:39:19.991Z,3.54
2017-03-10T08:40:19.970Z,3.56
2017-03-10T08:41:19.953Z,3.51
2017-03-10T08:42:19.930Z,3.61
2017-03-10T08:43:20.516Z,3.61
2017-03-10T08:44:19.909Z,3.58
2017-03-10T08:45:19.507Z,3.6
2017-03-10T08:46:19.888Z,3.58
2017-03-10T08:47:19.461Z,3.71
2017-03-10T08:48:19.842Z,3.66
2017-03-10T08:49:19.844Z,3.75
2017-03-10T08:50:19.815Z,3.75
2017-03-10T08:51:19.797Z,3.78
2017-03-10T08:52:19.804Z,3.79
2017-03-10T08:53:19.781Z,3.81
2017-03-10T08:54:19.761Z,3.84
2017-03-10T08:55:19.746Z,3.78
2017-03-10T08:56:19.731Z,3.94
2017-03-10T08:57:19.318Z,3.97
2017-03-10T08:58:19.708Z,3.86
2017-03-10T08:59:19.689Z,3.93
2017-03-10T09:00:19.272Z,4
2017-03-10T09:01:19.664Z,3.94
2017-03-10T09:02:19.643Z,3.93
2017-03-10T09:03:19.235Z,3.97
2017-03-10T09:04:19.618Z,3.99
2017-03-10T09:05:20.338Z,4.07
2017-03-10T09:06:20.139Z,3.94
2017-03-10T09:07:20.236Z,3.93
2017-03-10T09:08:19.557Z,3.97
2017-03-10T09:09:19.540Z,3.85
2017-03-10T09:10:19.531Z,3.86
2017-03-10T09:11:19.517Z,3.81
2017-03-10T09:12:19.499Z,3.74
2017-03-10T09:13:19.098Z,3.75
2017-03-10T09:14:19.073Z,3.72
2017-03-10T09:15:19.467Z,3.66
2017-03-10T09:16:19.460Z,3.67
2017-03-10T09:17:19.037Z,3.67
2017-03-10T09:18:19.420Z,3.66
2017-03-10T09:19:19.402Z,3.66
2017-03-10T09:20:19.392Z,3.69
2017-03-10T09:21:19.372Z,3.67
2017-03-10T09:22:19.356Z,3.67
2017-03-10T09:23:19.354Z,3.66
2017-03-10T09:24:19.337Z,3.66
2017-03-10T09:25:19.317Z,3.75
2017-03-10T09:26:19.304Z,3.66
2017-03-10T09:27:19.290Z,3.66
2017-03-10T09:28:19.274Z,3.61
2017-03-10T09:29:19.267Z,3.74
2017-03-10T09:30:19.254Z,3.75
2017-03-10T09:31:19.539Z,3.72
2017-03-10T09:32:19.908Z,3.74
2017-03-10T09:33:19.805Z,3.79
2017-03-10T09:34:19.864Z,3.86
2017-03-10T09:35:19.685Z,3.84
2017-03-10T09:36:19.365Z,3.82
2017-03-10T09:37:19.145Z,3.9
2017-03-10T09:38:18.743Z,3.92
2017-03-10T09:39:18.723Z,4
2017-03-10T09:40:19.107Z,4.15
2017-03-10T09:41:19.098Z,4.17
2017-03-10T09:42:19.077Z,4.24
2017-03-10T09:43:19.065Z,4.26
2017-03-10T09:44:19.042Z,4.33
2017-03-10T09:45:19.031Z,4.39
2017-03-10T09:46:19.028Z,4.54
2017-03-10T09:47:19.001Z,4.56
2017-03-10T09:48:18.590Z,4.5
2017-03-10T09:49:18.990Z,4.54
2017-03-10T09:50:18.961Z,4.51
2017-03-10T09:51:18.954Z,4.5
2017-03-10T09:52:18.936Z,4.6
2017-03-10T09:53:18.917Z,4.54
2017-03-10T09:54:18.916Z,4.44
2017-03-10T09:55:18.917Z,4.54
2017-03-10T09:56:18.881Z,4.57
2017-03-10T09:57:18.877Z,4.53
2017-03-10T09:58:18.857Z,4.46
2017-03-10T09:59:18.837Z,4.53
2017-03-10T10:00:18.838Z,4.6
2017-03-10T10:01:18.814Z,4.5
2017-03-10T10:02:18.794Z,4.6
2017-03-10T10:03:18.797Z,4.65
2017-03-10T10:04:18.793Z,4.72
2017-03-10T10:05:18.759Z,4.85
2017-03-10T10:06:18.343Z,4.87
2017-03-10T10:07:18.725Z,4.84
2017-03-10T10:08:18.715Z,4.74
2017-03-10T10:09:18.724Z,4.75
2017-03-10T10:10:18.696Z,4.74
2017-03-10T10:11:18.689Z,4.71
2017-03-10T10:12:18.658Z,4.69
2017-03-10T10:13:18.661Z,4.68
2017-03-10T10:14:18.258Z,4.66
2017-03-10T10:15:18.627Z,4.68
2017-03-10T10:16:18.610Z,4.68
2017-03-10T10:17:18.593Z,4.66
2017-03-10T10:18:18.596Z,4.61
2017-03-10T10:19:18.578Z,4.58
2017-03-10T10:20:18.551Z,4.56
2017-03-10T10:21:18.543Z,4.46
2017-03-10T10:22:18.521Z,4.48
2017-03-10T10:23:18.515Z,4.46
2017-03-10T10:24:18.493Z,4.42
2017-03-10T10:25:18.498Z,4.38
2017-03-10T10:26:18.486Z,4.33
2017-03-10T10:27:18.452Z,4.18
2017-03-10T10:28:18.449Z,4.22
2017-03-10T10:29:18.439Z,4.35
2017-03-10T10:30:18.023Z,4.39
2017-03-10T10:31:18.402Z,4.53
2017-03-10T10:32:18.408Z,4.57
2017-03-10T10:33:18.388Z,4.54
2017-03-10T10:34:18.356Z,4.68
2017-03-10T10:35:18.350Z,4.78
2017-03-10T10:36:18.340Z,4.94
2017-03-10T10:37:18.333Z,5.23
2017-03-10T10:38:18.387Z,5.42
2017-03-10T10:39:18.307Z,5.75
2017-03-10T10:40:18.286Z,5.81
2017-03-10T10:41:18.279Z,5.91
2017-03-10T10:42:18.258Z,5.87
2017-03-10T10:43:18.238Z,5.96
2017-03-10T10:44:18.229Z,5.85
2017-03-10T10:45:18.208Z,5.98
2017-03-10T10:46:18.198Z,5.89
2017-03-10T10:47:18.188Z,5.89
2017-03-10T10:48:18.173Z,5.95
2017-03-10T10:49:18.177Z,5.99
2017-03-10T10:50:18.150Z,6.05
2017-03-10T10:51:18.149Z,6.15
2017-03-10T10:52:18.128Z,6.24
2017-03-10T10:53:18.109Z,6.29
2017-03-10T10:54:17.708Z,6.29
2017-03-10T10:55:18.083Z,6.29
2017-03-10T10:56:18.086Z,6.28
2017-03-10T10:57:18.066Z,6.34
2017-03-10T10:58:18.048Z,6.26
2017-03-10T10:59:18.044Z,6.17
2017-03-10T11:00:17.623Z,6.24
2017-03-10T11:01:18.006Z,6.09
2017-03-10T11:02:18.019Z,6.09
2017-03-10T11:03:17.198Z,6.03
2017-03-10T11:04:17.973Z,5.91
2017-03-10T11:05:17.976Z,5.91
2017-03-10T11:06:17.944Z,5.81
2017-03-10T11:07:17.955Z,5.67
2017-03-10T11:08:17.923Z,5.64
2017-03-10T11:09:17.933Z,5.52
2017-03-10T11:10:18.483Z,5.45
2017-03-10T11:11:18.443Z,5.42
2017-03-10T11:12:17.901Z,5.42
2017-03-10T11:13:17.360Z,5.44
2017-03-10T11:14:17.849Z,5.41
2017-03-10T11:15:17.844Z,5.39
2017-03-10T11:16:17.841Z,5.41
2017-03-10T11:17:17.809Z,5.42
2017-03-10T11:18:17.796Z,5.57
2017-03-10T11:19:17.802Z,5.62
2017-03-10T11:20:18.180Z,5.55
2017-03-10T11:21:17.590Z,5.6
2017-03-10T11:22:17.939Z,5.67
2017-03-10T11:23:17.407Z,5.72
2017-03-10T11:24:18.161Z,5.67
2017-03-10T11:25:17.731Z,5.77
2017-03-10T11:26:17.714Z,5.69
2017-03-10T11:27:17.495Z,5.64
2017-03-10T11:28:17.601Z,5.63
2017-03-10T11:29:17.656Z,5.51
2017-03-10T11:30:17.642Z,5.44
2017-03-10T11:31:17.644Z,5.42
2017-03-10T11:32:17.619Z,5.41
2017-03-10T11:33:17.234Z,5.44
2017-03-10T11:34:17.196Z,5.46
2017-03-10T11:35:17.183Z,5.44
2017-03-10T11:36:17.173Z,5.41
2017-03-10T11:37:17.563Z,5.45
2017-03-10T11:38:17.161Z,5.57
2017-03-10T11:39:17.137Z,5.46
2017-03-10T11:40:17.516Z,5.64
2017-03-10T11:41:17.518Z,5.62
2017-03-10T11:42:17.502Z,5.73
2017-03-10T11:43:17.485Z,5.81
2017-03-10T11:44:17.506Z,5.87
2017-03-10T11:45:17.055Z,5.89
2017-03-10T11:46:17.453Z,5.91
2017-03-10T11:47:17.452Z,5.98
2017-03-10T11:48:17.431Z,6.02
2017-03-10T11:49:17.424Z,6
2017-03-10T11:50:17.402Z,5.87
2017-03-10T11:51:17.389Z,5.96
2017-03-10T11:52:17.362Z,5.91
2017-03-10T11:53:17.372Z,5.99
2017-03-10T11:54:17.379Z,5.98
2017-03-10T11:55:17.331Z,6.06
2017-03-10T11:56:17.329Z,6.1
2017-03-10T11:57:17.311Z,6.09
2017-03-10T11:58:17.299Z,6.07
2017-03-10T11:59:17.278Z,6.2
2017-03-10T12:00:17.268Z,6.31
2017-03-10T12:01:17.264Z,6.42
2017-03-10T12:02:17.250Z,6.55
2017-03-10T12:03:17.235Z,6.7
2017-03-10T12:04:17.234Z,6.82
2017-03-10T12:05:17.208Z,6.83
2017-03-10T12:06:17.208Z,6.91
2017-03-10T12:07:17.189Z,6.9
2017-03-10T12:08:17.175Z,6.85
2017-03-10T12:09:17.161Z,6.95
2017-03-10T12:10:17.152Z,6.95
2017-03-10T12:11:17.135Z,7
2017-03-10T12:12:17.141Z,6.98
2017-03-10T12:13:17.117Z,6.94
2017-03-10T12:14:17.102Z,6.86
2017-03-10T12:15:17.093Z,6.9
2017-03-10T12:16:17.089Z,7.05
2017-03-10T12:17:17.088Z,7.05
2017-03-10T12:18:17.059Z,7.15
2017-03-10T12:19:17.045Z,7.03
2017-03-10T12:20:17.032Z,7.05
2017-03-10T12:21:16.676Z,6.88
2017-03-10T12:22:17.031Z,6.9
2017-03-10T12:23:17.008Z,6.86
2017-03-10T12:24:17.018Z,6.91
2017-03-10T12:25:17.017Z,6.88
2017-03-10T12:26:16.982Z,6.9
2017-03-10T12:27:16.958Z,7
2017-03-10T12:28:16.945Z,6.95
2017-03-10T12:29:16.938Z,6.95
2017-03-10T12:30:16.928Z,6.93
2017-03-10T12:31:16.908Z,6.9
2017-03-10T12:32:16.916Z,6.95
2017-03-10T12:33:16.882Z,6.93
2017-03-10T12:34:16.867Z,6.9
2017-03-10T12:35:16.866Z,6.95
2017-03-10T12:36:16.464Z,7.03
2017-03-10T12:37:16.845Z,6.94
2017-03-10T12:38:16.826Z,6.79
2017-03-10T12:39:16.825Z,6.72
2017-03-10T12:40:16.800Z,6.72
2017-03-10T12:41:16.396Z,6.73
2017-03-10T12:42:16.777Z,6.54
2017-03-10T12:43:16.369Z,6.54
2017-03-10T12:44:16.770Z,6.47
2017-03-10T12:45:16.742Z,6.44
2017-03-10T12:46:16.750Z,6.49
2017-03-10T12:47:16.725Z,6.51
2017-03-10T12:48:16.708Z,6.46
2017-03-10T12:49:16.702Z,6.36
2017-03-10T12:50:16.684Z,6.39
2017-03-10T12:51:16.673Z,6.4
2017-03-10T12:52:16.667Z,6.46
2017-03-10T12:53:16.667Z,6.55
2017-03-10T12:54:16.650Z,6.57
2017-03-10T12:55:16.623Z,6.55
2017-03-10T12:56:16.994Z,6.61
2017-03-10T12:57:16.822Z,6.75
2017-03-10T12:58:16.356Z,6.73
2017-03-10T12:59:16.651Z,6.88
2017-03-10T13:00:16.634Z,6.88
2017-03-10T13:01:16.169Z,6.86
2017-03-10T13:02:16.677Z,6.9
2017-03-10T13:03:16.601Z,7
2017-03-10T13:04:16.728Z,7.01
2017-03-10T13:05:16.169Z,7
2017-03-10T13:06:16.667Z,7.18
2017-03-10T13:07:16.093Z,7.23
2017-03-10T13:08:16.658Z,7.31
2017-03-10T13:09:16.689Z,7.41
2017-03-10T13:10:16.641Z,7.45
2017-03-10T13:11:16.445Z,7.49
2017-03-10T13:12:16.436Z,7.51
2017-03-10T13:13:16.470Z,7.52
2017-03-10T13:14:16.429Z,7.41
2017-03-10T13:15:16.459Z,7.34
2017-03-10T13:16:16.531Z,7.33
2017-03-10T13:17:15.977Z,7.21
2017-03-10T13:18:16.570Z,7.27
2017-03-10T13:19:16.521Z,7.18
2017-03-10T13:20:16.501Z,7.13
2017-03-10T13:21:16.397Z,7.03